createdAt,value
2022-12-15T00:02:00.357Z,95905.53
2022-12-15T00:05:04.559Z,95920.56
2022-12-15T00:08:08.751Z,95920.91
2022-12-15T00:11:16.286Z,95925.25
2022-12-15T00:14:20.258Z,95928.84
2022-12-15T00:17:24.464Z,95935.94
2022-12-15T00:20:29.014Z,95929.16
2022-12-15T00:23:33.694Z,95937.09
2022-12-15T00:26:37.565Z,95940.81
2022-12-15T00:29:42.058Z,95941.78
2022-12-15T00:32:45.910Z,95950.50
2022-12-15T00:35:49.862Z,95954.88
2022-12-15T00:38:44.378Z,95948.88
2022-12-15T00:41:29.984Z,95947.25
2022-12-15T00:44:20.719Z,95950.84
2022-12-15T00:47:06.664Z,95950.84
2022-12-15T00:50:11.263Z,95950.03
2022-12-15T00:53:15.516Z,95961.19
2022-12-15T00:56:19.607Z,95971.19
2022-12-15T00:59:24.031Z,95976.34
2022-12-15T01:02:28.646Z,95972.78
2022-12-15T01:05:32.536Z,95983.13
2022-12-15T01:08:36.395Z,95990.88
2022-12-15T01:11:40.824Z,95995.41
2022-12-15T01:14:45.497Z,95995.41
2022-12-15T01:17:49.458Z,95990.59
2022-12-15T01:20:35.068Z,95988.97
2022-12-15T01:23:20.363Z,95980.91
2022-12-15T01:26:06.748Z,95982.53
2022-12-15T01:28:51.888Z,95988.47
2022-12-15T01:31:37.405Z,96003.50
2022-12-15T01:34:22.870Z,96006.09
2022-12-15T01:37:08.564Z,96000.78
2022-12-15T01:40:12.591Z,96000.81
2022-12-15T01:42:57.841Z,96008.38
2022-12-15T01:45:46.783Z,96013.88
2022-12-15T01:48:40.411Z,96024.19
2022-12-15T01:51:33.675Z,96012.56
2022-12-15T01:54:48.719Z,96019.63
2022-12-15T01:57:36.682Z,96021.53
2022-12-15T02:00:22.824Z,96022.16
2022-12-15T02:03:10.986Z,96011.81
2022-12-15T02:05:59.736Z,96019.03
2022-12-15T02:08:47.497Z,96019.81
2022-12-15T02:11:36.453Z,96028.50
2022-12-15T02:14:40.223Z,96038.03
2022-12-15T02:17:31.755Z,96048.97
2022-12-15T02:20:47.901Z,96045.94
2022-12-15T02:23:48.398Z,96047.25
2022-12-15T02:27:01.781Z,96047.44
2022-12-15T02:30:09.484Z,96041.81
2022-12-15T02:33:08.373Z,96038.91
2022-12-15T02:36:20.915Z,96049.09
2022-12-15T02:39:08.392Z,96041.19
2022-12-15T02:41:53.824Z,96046.03
2022-12-15T02:44:45.412Z,96057.84
2022-12-15T02:47:58.886Z,96068.00
2022-12-15T02:50:59.795Z,96069.59
2022-12-15T02:54:07.017Z,96060.91
2022-12-15T02:57:14.843Z,96072.81
2022-12-15T03:00:09.758Z,96079.94
2022-12-15T03:02:56.127Z,96069.59
2022-12-15T03:05:41.660Z,96072.03
2022-12-15T03:08:28.961Z,96063.31
2022-12-15T03:11:14.605Z,96076.88
2022-12-15T03:13:59.999Z,96073.19
2022-12-15T03:16:45.271Z,96076.25
2022-12-15T03:19:30.676Z,96087.88
2022-12-15T03:22:16.422Z,96089.34
2022-12-15T03:25:01.925Z,96100.00
2022-12-15T03:27:47.576Z,96108.91
2022-12-15T03:30:33.012Z,96129.22
2022-12-15T03:33:18.565Z,96131.50
2022-12-15T03:36:04.308Z,96122.63
2022-12-15T03:38:55.037Z,96119.09
2022-12-15T03:41:41.773Z,96114.59
2022-12-15T03:44:29.682Z,96118.78
2022-12-15T03:47:14.782Z,96122.81
2022-12-15T03:50:00.288Z,96117.00
2022-12-15T03:52:49.582Z,96120.09
2022-12-15T03:55:35.419Z,96139.63
2022-12-15T03:58:21.229Z,96138.50
2022-12-15T04:01:22.948Z,96133.00
2022-12-15T04:04:10.687Z,96149.00
2022-12-15T04:06:56.178Z,96144.47
2022-12-15T04:09:41.617Z,96127.19
2022-12-15T04:12:26.875Z,96120.91
2022-12-15T04:15:12.969Z,96124.28
2022-12-15T04:17:58.575Z,96131.72
2022-12-15T04:20:44.265Z,96137.69
2022-12-15T04:23:30.168Z,96124.47
2022-12-15T04:26:34.195Z,96134.66
2022-12-15T04:29:38.055Z,96155.94
2022-12-15T04:32:42.414Z,96156.59
2022-12-15T04:35:49.917Z,96160.97
2022-12-15T04:38:54.598Z,96174.03
2022-12-15T04:41:58.818Z,96164.34
2022-12-15T04:45:03.685Z,96173.06
2022-12-15T04:48:08.285Z,96166.94
2022-12-15T04:51:12.608Z,96184.06
2022-12-15T04:54:16.603Z,96183.91
2022-12-15T04:57:23.391Z,96173.72
2022-12-15T05:00:27.635Z,96190.03
2022-12-15T05:03:32.231Z,96179.69
2022-12-15T05:06:36.609Z,96188.28
2022-12-15T05:09:40.323Z,96186.47
2022-12-15T05:12:45.177Z,96207.97
2022-12-15T05:15:51.870Z,96201.84
2022-12-15T05:18:56.876Z,96211.19
2022-12-15T05:22:01.356Z,96210.22
2022-12-15T05:25:05.026Z,96192.16
2022-12-15T05:28:09.213Z,96211.84
2022-12-15T05:31:13.153Z,96229.16
2022-12-15T05:34:04.755Z,96210.41
2022-12-15T05:36:51.306Z,96224.13
2022-12-15T05:39:36.945Z,96204.44
2022-12-15T05:42:22.726Z,96204.44
2022-12-15T05:45:08.544Z,96210.22
2022-12-15T05:47:55.107Z,96228.31
2022-12-15T05:50:40.562Z,96237.03
2022-12-15T05:53:26.015Z,96249.31
2022-12-15T05:56:13.890Z,96247.88
2022-12-15T05:58:59.408Z,96257.53
2022-12-15T06:01:45.257Z,96253.16
2022-12-15T06:04:30.935Z,96273.03
2022-12-15T06:07:16.294Z,96277.53
2022-12-15T06:10:02.365Z,96273.34
2022-12-15T06:12:48.134Z,96281.91
2022-12-15T06:15:34.009Z,96282.56
2022-12-15T06:18:19.494Z,96280.97
2022-12-15T06:21:07.612Z,96274.81
2022-12-15T06:23:53.471Z,96273.84
2022-12-15T06:26:40.299Z,96270.28
2022-12-15T06:29:25.914Z,96251.41
2022-12-15T06:32:11.292Z,96255.91
2022-12-15T06:34:56.538Z,96266.56
2022-12-15T06:37:42.004Z,96260.09
2022-12-15T06:40:27.775Z,96279.63
2022-12-15T06:43:13.414Z,96294.78
2022-12-15T06:45:59.841Z,96283.81
2022-12-15T06:48:46.206Z,96282.19
2022-12-15T06:51:32.432Z,96301.22
2022-12-15T06:54:17.588Z,96300.56
2022-12-15T06:57:03.092Z,96297.34
2022-12-15T06:59:48.405Z,96307.78
2022-12-15T07:02:34.636Z,96307.00
2022-12-15T07:05:21.599Z,96286.50
2022-12-15T07:08:07.304Z,96269.22
2022-12-15T07:10:53.230Z,96309.59
2022-12-15T07:13:39.725Z,96330.25
2022-12-15T07:16:25.443Z,96337.03
2022-12-15T07:19:12.614Z,96329.13
2022-12-15T07:21:58.992Z,96329.63
2022-12-15T07:24:44.881Z,96334.63
2022-12-15T07:27:30.282Z,96350.47
2022-12-15T07:30:17.925Z,96343.38
2022-12-15T07:33:04.698Z,96353.25
2022-12-15T07:35:54.629Z,96350.84
2022-12-15T07:38:40.012Z,96342.66
2022-12-15T07:41:25.487Z,96349.16
2022-12-15T07:44:10.868Z,96331.06
2022-12-15T07:46:56.324Z,96333.31
2022-12-15T07:49:41.876Z,96349.50
2022-12-15T07:52:27.567Z,96360.16
2022-12-15T07:55:13.602Z,96360.66
2022-12-15T07:57:58.873Z,96366.19
2022-12-15T08:00:48.782Z,96371.69
2022-12-15T08:03:35.040Z,96372.69
2022-12-15T08:06:21.067Z,96367.56
2022-12-15T08:09:06.883Z,96377.94
2022-12-15T08:11:52.380Z,96361.63
2022-12-15T08:14:37.913Z,96366.19
2022-12-15T08:17:23.450Z,96368.13
2022-12-15T08:20:10.246Z,96368.34
2022-12-15T08:22:55.824Z,96364.28
2022-12-15T08:25:42.822Z,96372.38
2022-12-15T08:28:28.152Z,96380.50
2022-12-15T08:31:20.050Z,96381.78
2022-12-15T08:34:06.144Z,96384.88
2022-12-15T08:36:51.616Z,96397.81
2022-12-15T08:39:37.182Z,96393.28
2022-12-15T08:42:23.045Z,96391.19
2022-12-15T08:45:09.122Z,96394.25
2022-12-15T08:47:56.048Z,96389.56
2022-12-15T08:50:45.752Z,96394.09
2022-12-15T08:53:32.211Z,96395.44
2022-12-15T08:56:20.301Z,96379.56
2022-12-15T08:59:05.819Z,96387.97
2022-12-15T09:01:51.675Z,96386.03
2022-12-15T09:04:38.052Z,96404.50
2022-12-15T09:07:23.435Z,96413.72
2022-12-15T09:10:09.180Z,96403.84
2022-12-15T09:12:54.697Z,96413.56
2022-12-15T09:16:08.152Z,96411.28
2022-12-15T09:18:50.121Z,96416.66
2022-12-15T09:21:35.693Z,96432.53
2022-12-15T09:24:30.597Z,96435.59
2022-12-15T09:27:19.943Z,96437.84
2022-12-15T09:30:06.650Z,96433.16
2022-12-15T09:32:52.307Z,96433.34
2022-12-15T09:35:37.748Z,96441.25
2022-12-15T09:38:23.473Z,96450.81
2022-12-15T09:41:23.570Z,96463.63
2022-12-15T09:44:20.419Z,96469.59
2022-12-15T09:47:30.448Z,96469.25
2022-12-15T09:50:19.563Z,96472.47
2022-12-15T09:53:45.109Z,96451.69
2022-12-15T09:56:30.012Z,96441.97
2022-12-15T09:59:34.036Z,96448.06
2022-12-15T10:02:38.701Z,96448.06
2022-12-15T10:06:05.961Z,96432.78
2022-12-15T10:09:04.409Z,96425.31
2022-12-15T10:11:59.015Z,96435.03
2022-12-15T10:14:51.396Z,96422.97
2022-12-15T10:17:52.858Z,96419.69
2022-12-15T10:20:38.791Z,96424.69
2022-12-15T10:23:25.510Z,96413.72
2022-12-15T10:26:11.827Z,96411.53
2022-12-15T10:29:10.282Z,96422.03
2022-12-15T10:32:05.548Z,96413.38
2022-12-15T10:34:50.919Z,96415.13
2022-12-15T10:37:36.736Z,96417.28
2022-12-15T10:40:50.054Z,96410.69
2022-12-15T10:43:37.795Z,96416.47
2022-12-15T10:46:29.209Z,96407.78
2022-12-15T10:49:14.634Z,96404.28
2022-12-15T10:52:01.138Z,96391.91
2022-12-15T10:54:50.234Z,96393.53
2022-12-15T10:57:36.043Z,96387.63
2022-12-15T11:00:30.380Z,96381.50
2022-12-15T11:03:27.056Z,96383.84
2022-12-15T11:06:21.669Z,96383.56
2022-12-15T11:09:35.423Z,96371.63
2022-12-15T11:12:43.004Z,96379.53
2022-12-15T11:15:31.877Z,96357.38
2022-12-15T11:18:29.260Z,96361.59
2022-12-15T11:21:24.419Z,96352.41
2022-12-15T11:24:35.445Z,96352.22
2022-12-15T11:27:36.482Z,96358.25
2022-12-15T11:30:33.129Z,96343.97
2022-12-15T11:33:18.750Z,96346.13
2022-12-15T11:36:26.288Z,96349.72
2022-12-15T11:39:50.611Z,96342.28
2022-12-15T11:42:57.782Z,96356.53
2022-12-15T11:46:20.811Z,96358.53
2022-12-15T11:49:26.346Z,96359.25
2022-12-15T11:52:44.578Z,96347.59
2022-12-15T11:55:50.954Z,96343.56
2022-12-15T11:58:58.192Z,96340.31
2022-12-15T12:02:38.564Z,96340.50
2022-12-15T12:05:26.629Z,96337.25
2022-12-15T12:08:28.061Z,96337.44
2022-12-15T12:11:26.343Z,96341.22
2022-12-15T12:14:41.444Z,96337.19
2022-12-15T12:17:42.033Z,96344.56
2022-12-15T12:20:43.514Z,96340.69
2022-12-15T12:23:48.239Z,96344.63
2022-12-15T12:26:53.519Z,96347.94
2022-12-15T12:30:11.978Z,96353.16
2022-12-15T12:33:19.241Z,96367.53
2022-12-15T12:36:11.557Z,96374.34
2022-12-15T12:38:58.309Z,96376.31
2022-12-15T12:42:09.329Z,96359.06
2022-12-15T12:44:54.530Z,96361.88
2022-12-15T12:47:44.625Z,96348.03
2022-12-15T12:50:32.905Z,96342.69
2022-12-15T12:53:27.249Z,96333.06
2022-12-15T12:56:42.223Z,96321.88
2022-12-15T12:59:30.717Z,96322.41
2022-12-15T13:02:22.483Z,96334.75
2022-12-15T13:05:34.204Z,96343.53
2022-12-15T13:08:28.714Z,96345.34
2022-12-15T13:11:55.382Z,96359.16
2022-12-15T13:14:40.891Z,96357.56
2022-12-15T13:17:32.656Z,96342.56
2022-12-15T13:20:22.904Z,96331.81
2022-12-15T13:23:23.632Z,96342.69
2022-12-15T13:26:09.019Z,96317.84
2022-12-15T13:28:56.907Z,96319.16
2022-12-15T13:31:53.300Z,96318.72
2022-12-15T13:34:39.040Z,96317.91
2022-12-15T13:37:49.224Z,96326.06
2022-12-15T13:40:35.174Z,96324.47
2022-12-15T13:43:26.897Z,96323.66
2022-12-15T13:46:18.460Z,96335.22
2022-12-15T13:49:22.724Z,96312.72
2022-12-15T13:52:44.285Z,96308.84
2022-12-15T13:55:39.003Z,96333.75
2022-12-15T13:58:25.873Z,96329.72
2022-12-15T14:01:32.648Z,96321.81
2022-12-15T14:04:20.548Z,96323.34
2022-12-15T14:07:06.653Z,96327.44
2022-12-15T14:09:52.320Z,96325.19
2022-12-15T14:12:40.755Z,96325.75
2022-12-15T14:15:35.941Z,96327.22
2022-12-15T14:18:27.938Z,96324.00
2022-12-15T14:21:22.767Z,96331.50
2022-12-15T14:24:38.571Z,96323.25
2022-12-15T14:27:28.481Z,96336.16
2022-12-15T14:30:22.652Z,96340.06
2022-12-15T14:33:14.914Z,96336.84
2022-12-15T14:36:02.338Z,96342.38
2022-12-15T14:38:57.208Z,96341.09
2022-12-15T14:41:49.004Z,96334.47
2022-12-15T14:44:39.337Z,96327.38
2022-12-15T14:47:35.232Z,96336.00
2022-12-15T14:50:25.273Z,96340.25
2022-12-15T14:53:17.952Z,96344.38
2022-12-15T14:56:15.460Z,96336.44
2022-12-15T14:59:17.848Z,96328.53
2022-12-15T15:02:26.867Z,96320.63
2022-12-15T15:05:26.495Z,96318.22
2022-12-15T15:08:32.543Z,96316.69
2022-12-15T15:11:32.188Z,96305.53
2022-12-15T15:14:28.617Z,96311.53
2022-12-15T15:17:14.657Z,96312.72
2022-12-15T15:20:05.830Z,96302.22
2022-12-15T15:23:12.862Z,96305.66
2022-12-15T15:26:08.796Z,96309.72
2022-12-15T15:28:54.758Z,96313.75
2022-12-15T15:31:42.282Z,96316.06
2022-12-15T15:34:28.120Z,96314.13
2022-12-15T15:37:18.345Z,96323.53
2022-12-15T15:40:12.306Z,96322.41
2022-12-15T15:42:57.780Z,96324.66
2022-12-15T15:45:43.617Z,96321.13
2022-12-15T15:48:38.117Z,96328.75
2022-12-15T15:51:26.040Z,96328.44
2022-12-15T15:54:16.562Z,96335.22
2022-12-15T15:57:02.354Z,96325.69
2022-12-15T15:59:47.909Z,96334.91
2022-12-15T16:02:33.476Z,96335.38
2022-12-15T16:05:20.982Z,96337.63
2022-12-15T16:08:07.665Z,96348.63
2022-12-15T16:10:53.941Z,96352.53
2022-12-15T16:13:41.627Z,96347.97
2022-12-15T16:16:31.966Z,96356.22
2022-12-15T16:19:18.088Z,96348.44
2022-12-15T16:22:03.640Z,96343.69
2022-12-15T16:24:49.193Z,96338.53
2022-12-15T16:27:37.491Z,96342.38
2022-12-15T16:30:26.209Z,96347.56
2022-12-15T16:33:12.375Z,96344.66
2022-12-15T16:35:57.961Z,96340.16
2022-12-15T16:38:43.590Z,96341.59
2022-12-15T16:41:29.160Z,96345.97
2022-12-15T16:44:14.688Z,96347.91
2022-12-15T16:47:00.455Z,96342.75
2022-12-15T16:49:46.334Z,96348.03
2022-12-15T16:52:32.431Z,96349.84
2022-12-15T16:55:21.766Z,96338.03
2022-12-15T16:58:15.179Z,96334.94
2022-12-15T17:01:00.594Z,96337.69
2022-12-15T17:03:46.010Z,96338.00
2022-12-15T17:06:31.337Z,96337.34
2022-12-15T17:09:22.299Z,96328.28
2022-12-15T17:12:17.988Z,96323.41
2022-12-15T17:15:15.823Z,96313.41
2022-12-15T17:18:01.273Z,96314.34
2022-12-15T17:20:47.169Z,96301.75
2022-12-15T17:23:35.249Z,96293.34
2022-12-15T17:26:31.147Z,96297.84
2022-12-15T17:29:20.944Z,96294.63
2022-12-15T17:32:12.571Z,96294.13
2022-12-15T17:34:58.112Z,96290.06
2022-12-15T17:37:44.587Z,96292.97
2022-12-15T17:40:30.170Z,96306.84
2022-12-15T17:43:21.188Z,96302.50
2022-12-15T17:46:08.172Z,96307.69
2022-12-15T17:48:53.915Z,96311.84
2022-12-15T17:51:39.618Z,96312.69
2022-12-15T17:54:24.837Z,96320.13
2022-12-15T17:57:13.358Z,96321.75
2022-12-15T17:59:59.828Z,96320.94
2022-12-15T18:02:45.533Z,96318.50
2022-12-15T18:05:32.031Z,96318.50
2022-12-15T18:08:23.794Z,96316.91
2022-12-15T18:11:15.911Z,96324.16
2022-12-15T18:14:01.994Z,96319.50
2022-12-15T18:16:47.843Z,96314.81
2022-12-15T18:19:35.044Z,96316.16
2022-12-15T18:22:22.901Z,96320.03
2022-12-15T18:25:35.015Z,96312.59
2022-12-15T18:28:20.967Z,96294.19
2022-12-15T18:31:20.387Z,96300.00
2022-12-15T18:34:12.900Z,96302.44
2022-12-15T18:36:58.407Z,96299.69
2022-12-15T18:39:44.421Z,96285.97
2022-12-15T18:42:29.760Z,96290.97
2022-12-15T18:45:26.833Z,96282.41
2022-12-15T18:48:21.014Z,96277.88
2022-12-15T18:51:16.594Z,96282.09
2022-12-15T18:54:02.201Z,96270.78
2022-12-15T18:56:48.244Z,96268.84
2022-12-15T18:59:33.736Z,96265.94
2022-12-15T19:02:19.373Z,96258.84
2022-12-15T19:05:04.917Z,96254.94
2022-12-15T19:07:50.479Z,96250.28
2022-12-15T19:10:40.191Z,96245.75
2022-12-15T19:13:33.335Z,96242.03
2022-12-15T19:16:20.672Z,96241.69
2022-12-15T19:19:24.938Z,96246.56
2022-12-15T19:22:30.040Z,96250.59
2022-12-15T19:25:26.503Z,96251.88
2022-12-15T19:28:18.458Z,96252.53
2022-12-15T19:31:04.586Z,96248.81
2022-12-15T19:33:50.310Z,96257.25
2022-12-15T19:36:37.048Z,96261.94
2022-12-15T19:39:24.503Z,96253.03
2022-12-15T19:42:24.058Z,96248.34
2022-12-15T19:45:18.282Z,96248.84
2022-12-15T19:48:04.228Z,96243.50
2022-12-15T19:50:52.015Z,96250.91
2022-12-15T19:53:38.202Z,96249.78
2022-12-15T19:56:24.052Z,96246.88
2022-12-15T19:59:23.567Z,96242.34
2022-12-15T20:02:19.217Z,96229.22
2022-12-15T20:05:05.555Z,96220.50
2022-12-15T20:07:54.995Z,96218.53
2022-12-15T20:10:41.002Z,96212.25
2022-12-15T20:13:27.253Z,96206.41
2022-12-15T20:16:17.514Z,96200.25
2022-12-15T20:19:02.976Z,96197.31
2022-12-15T20:21:48.803Z,96191.97
2022-12-15T20:24:39.160Z,96191.66
2022-12-15T20:27:25.718Z,96188.09
2022-12-15T20:30:33.430Z,96185.34
2022-12-15T20:33:19.780Z,96182.75
2022-12-15T20:36:13.380Z,96179.19
2022-12-15T20:39:00.122Z,96174.66
2022-12-15T20:41:45.774Z,96178.69
2022-12-15T20:44:31.395Z,96176.72
2022-12-15T20:47:22.969Z,96175.63
2022-12-15T20:50:42.120Z,96179.66
2022-12-15T20:53:27.943Z,96177.84
2022-12-15T20:56:13.975Z,96178.50
2022-12-15T20:58:59.785Z,96180.91
2022-12-15T21:01:46.418Z,96166.16
2022-12-15T21:04:32.840Z,96162.59
2022-12-15T21:07:18.937Z,96163.44
2022-12-15T21:10:04.816Z,96151.28
2022-12-15T21:12:51.293Z,96153.88
2022-12-15T21:15:38.033Z,96160.66
2022-12-15T21:21:38.365Z,96148.50
2022-12-15T21:24:26.310Z,96143.34
2022-12-15T21:27:13.053Z,96145.78
2022-12-15T21:29:58.772Z,96141.38
2022-12-15T21:32:44.147Z,96140.41
2022-12-15T21:35:31.853Z,96155.97
2022-12-15T21:38:36.225Z,96156.75
2022-12-15T21:41:23.468Z,96156.59
2022-12-15T21:44:15.853Z,96162.75
2022-12-15T21:47:01.555Z,96155.00
2022-12-15T21:49:47.149Z,96170.53
2022-12-15T21:52:32.914Z,96162.59
2022-12-15T21:55:23.711Z,96128.13
2022-12-15T21:58:18.967Z,96122.09
2022-12-15T22:01:04.562Z,96127.28
2022-12-15T22:03:57.141Z,96134.88
2022-12-15T22:06:50.506Z,96124.53
2022-12-15T22:09:36.355Z,96129.56
2022-12-15T22:12:24.138Z,96127.75
2022-12-15T22:15:15.880Z,96136.34
2022-12-15T22:18:01.667Z,96145.72
2022-12-15T22:20:51.054Z,96123.41
2022-12-15T22:23:36.846Z,96114.63
2022-12-15T22:26:27.022Z,96127.59
2022-12-15T22:29:18.524Z,96120.81
2022-12-15T22:32:16.067Z,96111.41
2022-12-15T22:35:01.277Z,96113.34
2022-12-15T22:37:47.353Z,96113.19
2022-12-15T22:40:32.761Z,96105.88
2022-12-15T22:43:24.089Z,96104.25
2022-12-15T22:46:13.590Z,96115.44
2022-12-15T22:48:59.024Z,96106.84
2022-12-15T22:51:44.912Z,96104.25
2022-12-15T22:54:32.305Z,96100.88
2022-12-15T22:57:22.553Z,96101.06
2022-12-15T23:00:11.128Z,96103.00
2022-12-15T23:05:43.683Z,96111.75
2022-12-15T23:08:31.015Z,96100.59
2022-12-15T23:11:35.441Z,96092.97
2022-12-15T23:14:44.036Z,96094.75
2022-12-15T23:17:29.355Z,96097.34
2022-12-15T23:20:14.947Z,96094.94
2022-12-15T23:23:01.182Z,96087.16
2022-12-15T23:25:49.944Z,96081.00
2022-12-15T23:28:36.818Z,96066.44
2022-12-15T23:31:22.961Z,96069.03
2022-12-15T23:34:08.687Z,96070.66
2022-12-15T23:36:54.358Z,96060.28
2022-12-15T23:39:39.828Z,96068.22
2022-12-15T23:42:25.382Z,96066.63
2022-12-15T23:45:11.263Z,96060.44
2022-12-15T23:47:56.730Z,96053.50
2022-12-15T23:50:41.996Z,96070.00
2022-12-15T23:53:27.503Z,96061.44
2022-12-15T23:56:16.306Z,96056.59
2022-12-15T23:59:01.877Z,96061.75
